createdAt,value
2024-04-19T00:01:12.182Z,-2.90
2024-04-19T00:03:39.681Z,-2.94
2024-04-19T00:06:09.743Z,-2.97
2024-04-19T00:08:37.329Z,-2.99
2024-04-19T00:11:05.131Z,-3.04
2024-04-19T00:13:32.919Z,-3.07
2024-04-19T00:16:00.373Z,-3.09
2024-04-19T00:18:29.551Z,-3.12
2024-04-19T00:20:58.152Z,-3.14
2024-04-19T00:23:28.146Z,-3.18
2024-04-19T00:25:55.978Z,-3.23
2024-04-19T00:28:23.278Z,-3.27
2024-04-19T00:30:50.754Z,-3.33
2024-04-19T00:33:18.261Z,-3.32
2024-04-19T00:35:45.616Z,-3.38
2024-04-19T00:38:12.929Z,-3.42
2024-04-19T00:40:42.923Z,-3.46
2024-04-19T00:43:10.252Z,-3.49
2024-04-19T00:45:38.811Z,-3.52
2024-04-19T00:48:13.322Z,-3.58
2024-04-19T00:50:41.960Z,-3.56
2024-04-19T00:53:09.934Z,-3.57
2024-04-19T00:55:37.633Z,-3.59
2024-04-19T00:58:08.921Z,-3.61
2024-04-19T01:00:36.385Z,-3.62
2024-04-19T01:03:04.048Z,-3.62
2024-04-19T01:05:31.975Z,-3.64
2024-04-19T01:07:59.380Z,-3.67
2024-04-19T01:10:26.739Z,-3.68
2024-04-19T01:12:54.124Z,-3.70
2024-04-19T01:15:24.752Z,-3.74
2024-04-19T01:17:52.219Z,-3.76
2024-04-19T01:20:19.687Z,-3.77
2024-04-19T01:22:49.339Z,-3.78
2024-04-19T01:25:23.023Z,-3.78
2024-04-19T01:27:52.963Z,-3.80
2024-04-19T01:30:20.336Z,-3.86
2024-04-19T01:32:47.702Z,-3.93
2024-04-19T01:35:15.133Z,-3.93
2024-04-19T01:37:42.439Z,-3.97
2024-04-19T01:40:10.742Z,-4.01
2024-04-19T01:42:38.150Z,-4.05
2024-04-19T01:45:08.444Z,-4.12
2024-04-19T01:47:35.850Z,-4.13
2024-04-19T01:50:03.268Z,-4.19
2024-04-19T01:52:30.567Z,-4.24
2024-04-19T01:54:57.814Z,-4.26
2024-04-19T01:57:25.146Z,-4.30
2024-04-19T01:59:52.473Z,-4.30
2024-04-19T02:02:22.443Z,-4.30
2024-04-19T02:04:49.850Z,-4.30
2024-04-19T02:07:17.350Z,-4.33
2024-04-19T02:09:44.779Z,-4.39
2024-04-19T02:12:12.117Z,-4.38
2024-04-19T02:14:39.422Z,-4.40
2024-04-19T02:17:06.695Z,-4.39
2024-04-19T02:19:36.620Z,-4.43
2024-04-19T02:22:04.556Z,-4.46
2024-04-19T02:24:31.907Z,-4.46
2024-04-19T02:26:59.242Z,-4.48
2024-04-19T02:29:26.984Z,-4.52
2024-04-19T02:31:57.091Z,-4.56
2024-04-19T02:34:24.440Z,-4.59
2024-04-19T02:36:54.494Z,-4.63
2024-04-19T02:39:21.836Z,-4.67
2024-04-19T02:41:49.511Z,-4.71
2024-04-19T02:44:16.824Z,-4.75
2024-04-19T02:46:44.105Z,-4.79
2024-04-19T02:49:11.414Z,-4.83
2024-04-19T02:51:38.716Z,-4.86
2024-04-19T02:54:08.962Z,-4.91
2024-04-19T02:56:36.281Z,-4.93
2024-04-19T02:59:03.521Z,-4.93
2024-04-19T03:01:30.855Z,-4.93
2024-04-19T03:03:58.233Z,-4.88
2024-04-19T03:06:25.577Z,-4.88
2024-04-19T03:08:52.894Z,-4.90
2024-04-19T03:11:22.837Z,-4.90
2024-04-19T03:13:50.482Z,-4.88
2024-04-19T03:16:17.765Z,-4.87
2024-04-19T03:18:45.089Z,-4.86
2024-04-19T03:21:12.458Z,-4.87
2024-04-19T03:23:39.972Z,-4.86
2024-04-19T03:26:07.648Z,-4.88
2024-04-19T03:28:37.571Z,-4.88
2024-04-19T03:31:07.423Z,-4.88
2024-04-19T03:33:34.838Z,-4.87
2024-04-19T03:36:04.647Z,-4.88
2024-04-19T03:38:31.912Z,-4.85
2024-04-19T03:40:59.207Z,-4.84
2024-04-19T03:43:27.984Z,-4.81
2024-04-19T03:45:57.895Z,-4.76
2024-04-19T03:48:25.199Z,-4.74
2024-04-19T03:50:52.532Z,-4.67
2024-04-19T03:53:19.881Z,-4.62
2024-04-19T03:55:47.252Z,-4.57
2024-04-19T03:58:14.593Z,-4.52
2024-04-19T04:00:42.026Z,-4.46
2024-04-19T04:03:12.054Z,-4.41
2024-04-19T04:05:39.347Z,-4.36
2024-04-19T04:08:07.167Z,-4.30
2024-04-19T04:10:34.452Z,-4.24
2024-04-19T04:13:01.870Z,-4.16
2024-04-19T04:15:29.227Z,-4.04
2024-04-19T04:17:56.662Z,-3.94
2024-04-19T04:20:26.589Z,-3.86
2024-04-19T04:22:54.008Z,-3.76
2024-04-19T04:25:21.459Z,-3.66
2024-04-19T04:27:48.802Z,-3.57
2024-04-19T04:30:16.369Z,-3.45
2024-04-19T04:32:43.992Z,-3.33
2024-04-19T04:35:11.369Z,-3.17
2024-04-19T04:37:41.489Z,-2.98
2024-04-19T04:40:09.476Z,-2.79
2024-04-19T04:42:39.533Z,-2.62
2024-04-19T04:45:07.824Z,-2.39
2024-04-19T04:47:35.227Z,-2.23
2024-04-19T04:50:02.645Z,-2.07
2024-04-19T04:52:29.994Z,-1.89
2024-04-19T04:55:00.056Z,-1.72
2024-04-19T04:57:28.463Z,-1.52
2024-04-19T04:59:55.752Z,-1.33
2024-04-19T05:02:23.086Z,-1.17
2024-04-19T05:04:51.936Z,-1.04
2024-04-19T05:07:20.409Z,-0.89
2024-04-19T05:09:47.890Z,-0.76
2024-04-19T05:12:17.892Z,-0.63
2024-04-19T05:14:45.246Z,-0.46
2024-04-19T05:17:12.698Z,-0.31
2024-04-19T05:19:39.982Z,-0.17
2024-04-19T05:22:07.344Z,-0.02
2024-04-19T05:24:34.656Z,0.16
2024-04-19T05:27:01.918Z,0.30
2024-04-19T05:29:32.015Z,0.48
2024-04-19T05:31:59.445Z,0.70
2024-04-19T05:34:26.747Z,1.04
2024-04-19T05:36:54.110Z,1.32
2024-04-19T05:39:21.422Z,1.58
2024-04-19T05:41:48.720Z,1.78
2024-04-19T05:44:16.049Z,1.99
2024-04-19T05:46:46.018Z,2.28
2024-04-19T05:49:13.406Z,2.32
2024-04-19T05:51:40.699Z,2.47
2024-04-19T05:54:08.055Z,2.43
2024-04-19T05:56:35.342Z,2.42
2024-04-19T05:59:02.980Z,2.73
2024-04-19T06:01:30.348Z,2.95
2024-04-19T06:04:00.659Z,3.71
2024-04-19T06:06:28.552Z,3.79
2024-04-19T06:08:55.859Z,3.51
2024-04-19T06:11:25.877Z,3.15
2024-04-19T06:13:53.582Z,3.13
2024-04-19T06:16:20.908Z,3.24
2024-04-19T06:18:48.392Z,3.11
2024-04-19T06:21:18.541Z,3.11
2024-04-19T06:23:45.845Z,3.06
2024-04-19T06:26:13.217Z,2.75
2024-04-19T06:28:40.520Z,2.75
2024-04-19T06:31:08.725Z,2.76
2024-04-19T06:33:36.060Z,3.10
2024-04-19T06:36:03.463Z,3.44
2024-04-19T06:38:34.065Z,3.74
2024-04-19T06:41:01.365Z,4.01
2024-04-19T06:43:28.756Z,4.03
2024-04-19T06:45:56.111Z,3.96
2024-04-19T06:48:23.551Z,4.15
2024-04-19T06:50:50.916Z,4.33
2024-04-19T06:53:18.229Z,4.66
2024-04-19T06:55:48.102Z,4.53
2024-04-19T06:58:15.448Z,4.32
2024-04-19T07:03:15.429Z,4.31
2024-04-19T07:05:42.751Z,4.27
2024-04-19T07:08:10.153Z,4.29
2024-04-19T07:10:39.377Z,4.13
2024-04-19T07:13:09.331Z,4.23
2024-04-19T07:15:36.759Z,4.13
2024-04-19T07:18:04.812Z,4.11
2024-04-19T07:20:32.085Z,4.08
2024-04-19T07:22:59.355Z,4.10
2024-04-19T07:25:26.621Z,3.87
2024-04-19T07:27:53.925Z,3.70
2024-04-19T07:30:23.803Z,3.52
2024-04-19T07:32:51.171Z,3.61
2024-04-19T07:35:18.444Z,3.62
2024-04-19T07:37:45.947Z,3.59
2024-04-19T07:40:13.375Z,3.73
2024-04-19T07:42:40.728Z,3.76
2024-04-19T07:45:08.282Z,3.81
2024-04-19T07:47:38.592Z,3.74
2024-04-19T07:50:06.515Z,3.70
2024-04-19T07:52:33.836Z,3.65
2024-04-19T07:55:01.116Z,3.42
2024-04-19T07:57:28.366Z,3.41
2024-04-19T07:59:55.720Z,3.35
2024-04-19T08:02:23.107Z,3.36
2024-04-19T08:04:53.101Z,3.42
2024-04-19T08:07:27.996Z,3.54
2024-04-19T08:09:59.223Z,3.72
2024-04-19T08:12:26.539Z,3.54
2024-04-19T08:14:53.903Z,3.65
2024-04-19T08:17:21.166Z,3.58
2024-04-19T08:19:48.658Z,3.54
2024-04-19T08:22:18.731Z,3.41
2024-04-19T08:24:46.075Z,3.52
2024-04-19T08:27:13.397Z,3.53
2024-04-19T08:29:40.686Z,3.40
2024-04-19T08:32:08.495Z,3.41
2024-04-19T08:34:36.623Z,3.35
2024-04-19T08:37:03.905Z,3.44
2024-04-19T08:39:33.806Z,3.53
2024-04-19T08:42:06.330Z,3.61
2024-04-19T08:44:34.948Z,3.67
2024-04-19T08:47:03.795Z,3.76
2024-04-19T08:49:33.148Z,3.80
2024-04-19T08:52:14.192Z,3.83
2024-04-19T08:54:52.815Z,3.92
2024-04-19T08:57:22.939Z,3.64
2024-04-19T09:00:01.140Z,3.78
2024-04-19T09:02:32.611Z,3.98
2024-04-19T09:04:59.974Z,4.16
2024-04-19T09:07:27.291Z,4.12
2024-04-19T09:10:01.190Z,4.30
2024-04-19T09:12:30.821Z,4.46
2024-04-19T09:14:58.085Z,4.74
2024-04-19T09:17:25.401Z,4.82
2024-04-19T09:19:52.743Z,4.80
2024-04-19T09:22:20.082Z,4.71
2024-04-19T09:24:47.375Z,4.63
2024-04-19T09:27:17.354Z,4.56
2024-04-19T09:29:45.216Z,4.33
2024-04-19T09:32:12.478Z,4.19
2024-04-19T09:34:40.118Z,4.21
2024-04-19T09:37:07.427Z,4.22
2024-04-19T09:39:37.497Z,4.11
2024-04-19T09:42:05.379Z,4.09
2024-04-19T09:44:35.904Z,3.95
2024-04-19T09:47:05.448Z,3.84
2024-04-19T09:49:33.955Z,3.81
2024-04-19T09:52:04.847Z,3.76
2024-04-19T09:54:35.321Z,3.72
2024-04-19T09:57:02.774Z,3.58
2024-04-19T09:59:31.150Z,3.46
2024-04-19T10:02:01.200Z,3.47
2024-04-19T10:04:29.014Z,3.43
2024-04-19T10:06:58.913Z,3.60
2024-04-19T10:09:26.861Z,3.76
2024-04-19T10:11:55.157Z,3.92
2024-04-19T10:14:23.158Z,4.00
2024-04-19T10:16:50.864Z,4.14
2024-04-19T10:19:21.047Z,4.21
2024-04-19T10:21:53.245Z,4.19
2024-04-19T10:24:21.323Z,4.23
2024-04-19T10:26:50.349Z,4.23
2024-04-19T10:29:19.288Z,4.16
2024-04-19T10:31:46.826Z,4.22
2024-04-19T10:34:14.250Z,4.13
2024-04-19T10:36:44.196Z,4.19
2024-04-19T10:39:11.916Z,4.17
2024-04-19T10:41:47.022Z,3.97
2024-04-19T10:44:14.392Z,3.90
2024-04-19T10:46:41.722Z,3.99
2024-04-19T10:49:10.216Z,4.09
2024-04-19T10:51:37.639Z,4.18
2024-04-19T10:54:07.938Z,4.26
2024-04-19T10:56:37.505Z,4.31
2024-04-19T10:59:04.771Z,4.47
2024-04-19T11:01:32.138Z,4.38
2024-04-19T11:03:59.757Z,4.29
2024-04-19T11:06:27.320Z,4.41
2024-04-19T11:08:55.045Z,4.48
2024-04-19T11:11:26.581Z,4.38
2024-04-19T11:13:54.107Z,4.41
2024-04-19T11:16:21.481Z,4.44
2024-04-19T11:18:48.951Z,4.57
2024-04-19T11:21:16.589Z,4.80
2024-04-19T11:23:43.939Z,4.80
2024-04-19T11:26:11.503Z,4.91
2024-04-19T11:28:45.930Z,5.01
2024-04-19T11:31:14.069Z,5.04
2024-04-19T11:33:41.445Z,5.03
2024-04-19T11:36:09.708Z,5.04
2024-04-19T11:38:37.407Z,4.97
2024-04-19T11:41:05.205Z,5.04
2024-04-19T11:43:32.624Z,5.16
2024-04-19T11:46:02.622Z,5.08
2024-04-19T11:48:30.166Z,5.09
2024-04-19T11:50:58.735Z,5.13
2024-04-19T11:53:26.282Z,5.16
2024-04-19T11:55:53.582Z,5.14
2024-04-19T11:58:21.437Z,5.16
2024-04-19T12:00:48.856Z,5.22
2024-04-19T12:03:18.886Z,5.00
2024-04-19T12:05:46.547Z,5.07
2024-04-19T12:08:14.152Z,5.00
2024-04-19T12:10:41.871Z,4.98
2024-04-19T12:13:50.343Z,4.83
2024-04-19T12:18:29.646Z,4.58
2024-04-19T12:20:57.273Z,4.51
2024-04-19T12:23:26.051Z,4.56
2024-04-19T12:25:55.179Z,4.49
2024-04-19T12:28:23.014Z,4.58
2024-04-19T12:30:50.457Z,4.50
2024-04-19T12:33:17.890Z,4.33
2024-04-19T12:35:48.283Z,4.33
2024-04-19T12:38:15.695Z,4.28
2024-04-19T12:40:43.729Z,4.27
2024-04-19T12:43:12.118Z,4.42
2024-04-19T12:45:39.376Z,4.47
2024-04-19T12:48:09.433Z,4.64
2024-04-19T12:50:37.668Z,4.67
2024-04-19T12:53:07.753Z,4.71
2024-04-19T12:55:36.423Z,4.95
2024-04-19T12:58:03.702Z,5.19
2024-04-19T13:00:31.305Z,5.26
2024-04-19T13:02:58.794Z,5.26
2024-04-19T13:05:27.325Z,5.22
2024-04-19T13:07:54.745Z,5.31
2024-04-19T13:10:24.796Z,5.37
2024-04-19T13:12:52.106Z,5.29
2024-04-19T13:15:19.496Z,5.27
2024-04-19T13:17:47.186Z,5.41
2024-04-19T13:20:14.542Z,5.61
2024-04-19T13:22:41.761Z,5.78
2024-04-19T13:25:09.095Z,5.79
2024-04-19T13:27:39.197Z,5.93
2024-04-19T13:30:08.055Z,5.88
2024-04-19T13:32:35.377Z,5.84
2024-04-19T13:35:02.643Z,5.84
2024-04-19T13:37:30.026Z,5.77
2024-04-19T13:39:57.725Z,5.74
2024-04-19T13:42:25.131Z,5.68
2024-04-19T13:44:55.111Z,5.56
2024-04-19T13:47:22.451Z,5.22
2024-04-19T13:49:49.762Z,5.26
2024-04-19T13:52:17.015Z,4.98
2024-04-19T13:54:44.664Z,4.98
2024-04-19T13:57:12.596Z,4.93
2024-04-19T13:59:39.897Z,4.99
2024-04-19T14:02:10.005Z,5.01
2024-04-19T14:04:37.307Z,4.95
2024-04-19T14:07:04.976Z,5.01
2024-04-19T14:09:32.386Z,5.06
2024-04-19T14:11:59.712Z,5.06
2024-04-19T14:14:27.210Z,5.06
2024-04-19T14:16:55.528Z,5.00
2024-04-19T14:19:25.453Z,4.83
2024-04-19T14:21:53.057Z,4.65
2024-04-19T14:24:20.534Z,4.53
2024-04-19T14:26:48.038Z,4.47
2024-04-19T14:29:15.308Z,4.50
2024-04-19T14:31:42.639Z,4.45
2024-04-19T14:34:09.924Z,4.46
2024-04-19T14:36:40.011Z,4.43
2024-04-19T14:39:07.382Z,4.25
2024-04-19T14:41:34.739Z,4.18
2024-04-19T14:44:03.028Z,4.18
2024-04-19T14:46:30.651Z,4.11
2024-04-19T14:48:58.222Z,4.14
2024-04-19T14:51:25.728Z,4.25
2024-04-19T14:53:55.752Z,4.31
2024-04-19T14:56:23.164Z,4.25
2024-04-19T14:58:59.770Z,4.18
2024-04-19T15:01:34.798Z,4.11
2024-04-19T15:04:02.526Z,4.09
2024-04-19T15:06:30.126Z,4.00
2024-04-19T15:09:00.305Z,4.01
2024-04-19T15:11:28.539Z,3.97
2024-04-19T15:13:55.780Z,3.90
2024-04-19T15:19:30.718Z,3.70
2024-04-19T15:21:59.121Z,3.67
2024-04-19T15:24:29.062Z,3.60
2024-04-19T15:26:56.348Z,3.58
2024-04-19T15:29:23.657Z,3.43
2024-04-19T15:31:50.944Z,3.38
2024-04-19T15:34:40.508Z,3.24
2024-04-19T15:37:05.636Z,3.15
2024-04-19T15:39:35.598Z,3.08
2024-04-19T15:42:02.975Z,3.02
2024-04-19T15:44:30.328Z,2.96
2024-04-19T15:46:57.638Z,2.87
2024-04-19T15:49:24.944Z,2.90
2024-04-19T15:51:52.344Z,2.83
2024-04-19T15:54:19.654Z,2.79
2024-04-19T15:56:49.631Z,2.73
2024-04-19T15:59:16.917Z,2.70
2024-04-19T16:01:44.714Z,2.67
2024-04-19T16:04:12.165Z,2.69
2024-04-19T16:06:39.534Z,2.60
2024-04-19T16:09:06.875Z,2.54
2024-04-19T16:11:34.162Z,2.49
2024-04-19T16:14:04.246Z,2.44
2024-04-19T16:16:32.080Z,2.43
2024-04-19T16:18:59.915Z,2.37
2024-04-19T16:21:27.270Z,2.39
2024-04-19T16:23:54.655Z,2.31
2024-04-19T16:26:22.061Z,2.24
2024-04-19T16:28:49.584Z,2.31
2024-04-19T16:31:19.462Z,2.26
2024-04-19T16:33:46.849Z,2.34
2024-04-19T16:36:14.189Z,2.35
2024-04-19T16:38:41.435Z,2.36
2024-04-19T16:41:09.195Z,2.33
2024-04-19T16:43:36.829Z,2.37
2024-04-19T16:46:04.676Z,2.35
2024-04-19T16:48:34.915Z,2.30
2024-04-19T16:51:02.428Z,2.28
2024-04-19T16:53:29.701Z,2.24
2024-04-19T16:55:57.458Z,2.23
2024-04-19T16:58:24.744Z,2.17
2024-04-19T17:00:52.671Z,2.21
2024-04-19T17:03:20.449Z,2.16
2024-04-19T17:05:50.371Z,2.14
2024-04-19T17:08:17.634Z,2.12
2024-04-19T17:10:45.468Z,2.16
2024-04-19T17:13:13.224Z,2.08
2024-04-19T17:15:41.103Z,2.07
2024-04-19T17:18:08.727Z,2.04
2024-04-19T17:20:37.103Z,1.95
2024-04-19T17:23:07.151Z,1.92
2024-04-19T17:25:34.639Z,1.92
2024-04-19T17:28:02.574Z,1.85
2024-04-19T17:30:30.505Z,1.81
2024-04-19T17:32:58.032Z,1.84
2024-04-19T17:35:25.403Z,1.83
2024-04-19T17:37:52.698Z,1.80
2024-04-19T17:40:22.609Z,1.78
2024-04-19T17:42:49.890Z,1.69
2024-04-19T17:45:17.204Z,1.64
2024-04-19T17:47:45.641Z,1.60
2024-04-19T17:50:13.038Z,1.54
2024-04-19T17:52:40.324Z,1.53
2024-04-19T17:55:08.031Z,1.47
2024-04-19T17:57:37.988Z,1.36
2024-04-19T18:00:06.239Z,1.31
2024-04-19T18:02:33.754Z,1.28
2024-04-19T18:05:01.353Z,1.25
2024-04-19T18:07:28.700Z,1.18
2024-04-19T18:09:56.187Z,1.21
2024-04-19T18:12:23.662Z,1.16
2024-04-19T18:14:53.629Z,1.12
2024-04-19T18:17:20.908Z,1.20
2024-04-19T18:19:48.241Z,1.15
2024-04-19T18:22:15.576Z,1.14
2024-04-19T18:24:42.961Z,1.08
2024-04-19T18:27:10.498Z,1.00
2024-04-19T18:29:38.174Z,0.95
2024-04-19T18:32:08.416Z,1.03
2024-04-19T18:34:35.721Z,1.03
2024-04-19T18:37:03.039Z,1.05
2024-04-19T18:39:30.495Z,1.02
2024-04-19T18:41:57.793Z,0.97
2024-04-19T18:44:25.142Z,0.99
2024-04-19T18:46:52.553Z,0.96
2024-04-19T18:49:22.639Z,0.99
2024-04-19T18:51:50.025Z,0.98
2024-04-19T18:54:17.335Z,0.89
2024-04-19T18:56:45.099Z,0.82
2024-04-19T18:59:12.569Z,0.87
2024-04-19T19:01:39.912Z,0.88
2024-04-19T19:04:07.272Z,0.88
2024-04-19T19:06:37.231Z,0.79
2024-04-19T19:09:04.726Z,0.82
2024-04-19T19:11:32.941Z,0.78
2024-04-19T19:14:02.069Z,0.78
2024-04-19T19:16:30.222Z,0.71
2024-04-19T19:18:57.712Z,0.74
2024-04-19T19:21:26.089Z,0.62
2024-04-19T19:23:57.093Z,0.53
2024-04-19T19:26:24.770Z,0.40
2024-04-19T19:28:52.129Z,0.39
2024-04-19T19:31:19.998Z,0.32
2024-04-19T19:33:47.457Z,0.29
2024-04-19T19:36:14.730Z,0.17
2024-04-19T19:38:42.293Z,0.13
2024-04-19T19:41:14.779Z,0.21
2024-04-19T19:43:42.034Z,0.18
2024-04-19T19:46:09.794Z,0.18
2024-04-19T19:48:39.101Z,0.23
2024-04-19T19:51:07.175Z,0.20
2024-04-19T19:53:34.659Z,0.21
2024-04-19T19:56:02.501Z,0.25
2024-04-19T19:58:32.583Z,0.28
2024-04-19T20:01:00.664Z,0.30
2024-04-19T20:03:28.495Z,0.35
2024-04-19T20:05:56.451Z,0.36
2024-04-19T20:08:23.925Z,0.41
2024-04-19T20:10:51.905Z,0.28
2024-04-19T20:13:19.564Z,0.39
2024-04-19T20:15:50.856Z,0.37
2024-04-19T20:18:19.179Z,0.42
2024-04-19T20:20:47.994Z,0.47
2024-04-19T20:23:15.510Z,0.43
2024-04-19T20:25:43.719Z,0.46
2024-04-19T20:28:11.362Z,0.40
2024-04-19T20:30:41.087Z,0.43
2024-04-19T20:33:11.519Z,0.39
2024-04-19T20:35:39.746Z,0.30
2024-04-19T20:38:07.736Z,0.44
2024-04-19T20:40:35.173Z,0.36
2024-04-19T20:43:14.580Z,0.35
2024-04-19T20:45:47.508Z,0.23
2024-04-19T20:48:17.652Z,0.19
2024-04-19T20:50:48.292Z,0.13
2024-04-19T20:53:15.540Z,0.08
2024-04-19T20:55:43.565Z,-0.03
2024-04-19T20:58:11.074Z,-0.11
2024-04-19T21:00:38.878Z,-0.07
2024-04-19T21:03:07.024Z,-0.01
2024-04-19T21:05:37.098Z,-0.04
2024-04-19T21:08:04.982Z,0.01
2024-04-19T21:10:32.280Z,-0.02
2024-04-19T21:12:59.883Z,-0.05
2024-04-19T21:15:28.006Z,-0.13
2024-04-19T21:17:56.236Z,-0.15
2024-04-19T21:20:24.300Z,-0.17
2024-04-19T21:22:54.186Z,-0.12
2024-04-19T21:25:21.414Z,-0.08
2024-04-19T21:27:51.314Z,-0.10
2024-04-19T21:30:19.602Z,-0.13
2024-04-19T21:32:47.385Z,-0.21
2024-04-19T21:35:14.921Z,-0.32
2024-04-19T21:37:42.219Z,-0.41
2024-04-19T21:40:12.388Z,-0.50
2024-04-19T21:42:39.795Z,-0.64
2024-04-19T21:45:07.631Z,-0.74
2024-04-19T21:47:35.097Z,-0.85
2024-04-19T21:50:02.669Z,-0.91
2024-04-19T21:52:29.978Z,-1.01
2024-04-19T21:54:57.399Z,-1.04
2024-04-19T21:57:27.513Z,-1.10
2024-04-19T21:59:55.039Z,-1.24
2024-04-19T22:02:22.326Z,-1.26
2024-04-19T22:04:49.634Z,-1.20
2024-04-19T22:07:17.176Z,-1.27
2024-04-19T22:09:44.528Z,-1.28
2024-04-19T22:12:11.904Z,-1.22
2024-04-19T22:14:41.811Z,-1.34
2024-04-19T22:17:09.153Z,-1.26
2024-04-19T22:19:36.455Z,-1.30
2024-04-19T22:22:03.951Z,-1.38
2024-04-19T22:24:31.315Z,-1.33
2024-04-19T22:26:58.684Z,-1.35
2024-04-19T22:29:25.950Z,-1.30
2024-04-19T22:31:55.926Z,-1.30
2024-04-19T22:34:23.749Z,-1.32
2024-04-19T22:36:51.271Z,-1.45
2024-04-19T22:39:18.689Z,-1.42
2024-04-19T22:41:45.990Z,-1.50
2024-04-19T22:44:13.321Z,-1.57
2024-04-19T22:46:40.610Z,-1.68
2024-04-19T22:49:10.524Z,-1.80
2024-04-19T22:51:47.532Z,-1.90
2024-04-19T22:54:14.896Z,-1.96
2024-04-19T22:56:42.245Z,-1.90
2024-04-19T22:59:09.632Z,-1.90
2024-04-19T23:01:37.036Z,-1.92
2024-04-19T23:04:04.771Z,-1.96
2024-04-19T23:06:35.541Z,-2.10
2024-04-19T23:09:04.397Z,-2.12
2024-04-19T23:11:34.104Z,-2.15
2024-04-19T23:14:02.477Z,-2.21
2024-04-19T23:16:29.756Z,-2.19
2024-04-19T23:18:57.761Z,-2.25
2024-04-19T23:21:25.839Z,-2.27
2024-04-19T23:23:55.969Z,-2.29
2024-04-19T23:26:23.994Z,-2.44
2024-04-19T23:28:51.527Z,-2.44
2024-04-19T23:31:18.790Z,-2.42
2024-04-19T23:33:46.107Z,-2.40
2024-04-19T23:36:14.350Z,-2.54
2024-04-19T23:38:41.884Z,-2.45
2024-04-19T23:41:13.179Z,-2.52
2024-04-19T23:43:40.714Z,-2.29
2024-04-19T23:46:08.036Z,-2.16
2024-04-19T23:48:35.390Z,-2.13
2024-04-19T23:51:03.436Z,-2.18
2024-04-19T23:53:31.218Z,-2.03
2024-04-19T23:55:59.179Z,-1.94
2024-04-19T23:58:30.390Z,-1.92
